Nagarote, Nicaragua

10:33 PM CST on September 16, 2014 (GMT -0600)
Augusto Cesar Sandino | Change Station
CLOSE
Current Station
Airport
Location: Managua,
Elevation: 184 ft
Nearby Weather Stations

Elev 184 ft 12.14 °N, 86.17 °W | Updated 33 minutes ago

Scattered Clouds
Scattered Clouds
75 °F
Feels Like 75 °F
N
0
Wind Variable Wind from North

Today
High -- | Low -- °F
--% Chance of Precip.
Yesterday
High -- | Low -- °F
Precip. -- in
5:35 AM 5:46 PM
Last Quarter, 39% visible
Pressure 29.95 in
Visibility 6.2 miles
Clouds Few 2000 ft
Scattered Clouds 7000 ft
Dew Point 73 °F
Humidity 94%
Rainfall 0.00 in
Snow Depth Not available.
UV 0 out of 12
Pollen Not available.
Air Quality Not available.
Flu Activity Not available.
METAR MNMG 170400Z 00000KT 9999 FEW020CB SCT070 24/23 Q1014 A2995 CB/ SW NOS IG

More Conditions Fewer Conditions

Pressure 29.95 in
Visibility 6.2 miles
Clouds Few 2000 ft
Scattered Clouds 7000 ft
Dew Point 73 °F
Humidity 94%
Rainfall 0.00 in
Snow Depth Not available.
UV 0 out of 12
Pollen Not available.
Air Quality Not available.
Flu Activity Not available.
METAR MNMG 170400Z 00000KT 9999 FEW020CB SCT070 24/23 Q1014 A2995 CB/ SW NOS IG

More Conditions Fewer Conditions

10-Day Weather Forecast

Almanac

Astronomy

Sep. 16, 2014 Rise Set
Actual Time 5:35 AM CST 5:46 PM CST
Civil Twilight 5:14 AM CST 6:07 PM CST
Nautical Twilight 4:49 AM CST 6:32 PM CST
Astronomical Twilight 4:24 AM CST 6:56 PM CST
Moon No Moon Rise 12:26 PM CST (9/16)
Length of Visible Light 12h 53m
Length of Day
12h 10m
Tomorrow will be 0m 40s shorter.
Last Quarter, 39% of the Moon is Illuminated
Sep 17
Last Quarter
Sep 24
New
Oct 1
First Quarter
Oct 8
Full
Oct 15
Last Quarter

Today's Extremes

Country Highs Country Lows

Community

WunderPhotos

Upload Photos

1,753,965 photos uploaded!

Nearby

Snow Depth

Not available.

Earthquake Activity

City Distance Mag. Time & Date
No recent earthquake activity has been reported nearby.
Minimum magnitude displayed is 2.5.

Coastal Water Temperatures

Place Temperature
No Stations Reporting

Nearby Weather Stations